sensor_id;sensor_type;location;lat;lon;timestamp;P1;durP1;ratioP1;P2;durP2;ratioP2
48205;SDS011;33995;48.202;16.260;2022-09-09T00:02:02;0.97;;;0.90;;
48205;SDS011;33995;48.202;16.260;2022-09-09T00:04:42;1.47;;;1.20;;
48205;SDS011;33995;48.202;16.260;2022-09-09T00:10:31;1.40;;;1.00;;
48205;SDS011;33995;48.202;16.260;2022-09-09T00:16:22;1.70;;;1.27;;
48205;SDS011;33995;48.202;16.260;2022-09-09T00:22:20;1.67;;;1.00;;
48205;SDS011;33995;48.202;16.260;2022-09-09T00:24:55;1.57;;;1.20;;
48205;SDS011;33995;48.202;16.260;2022-09-09T00:27:47;1.40;;;1.30;;
48205;SDS011;33995;48.202;16.260;2022-09-09T00:30:23;1.70;;;1.37;;
48205;SDS011;33995;48.202;16.260;2022-09-09T00:33:01;1.77;;;1.50;;
48205;SDS011;33995;48.202;16.260;2022-09-09T00:35:44;1.60;;;1.40;;
48205;SDS011;33995;48.202;16.260;2022-09-09T00:38:19;1.30;;;1.20;;
48205;SDS011;33995;48.202;16.260;2022-09-09T00:40:52;2.40;;;1.20;;
48205;SDS011;33995;48.202;16.260;2022-09-09T00:43:31;1.40;;;1.30;;
48205;SDS011;33995;48.202;16.260;2022-09-09T00:58:24;2.17;;;1.50;;
48205;SDS011;33995;48.202;16.260;2022-09-09T01:03:56;3.27;;;1.37;;
48205;SDS011;33995;48.202;16.260;2022-09-09T01:06:36;1.60;;;1.30;;
48205;SDS011;33995;48.202;16.260;2022-09-09T01:09:13;1.10;;;1.00;;
48205;SDS011;33995;48.202;16.260;2022-09-09T01:15:27;1.40;;;1.30;;
48205;SDS011;33995;48.202;16.260;2022-09-09T01:18:10;1.40;;;1.00;;
48205;SDS011;33995;48.202;16.260;2022-09-09T01:20:52;1.73;;;1.10;;
48205;SDS011;33995;48.202;16.260;2022-09-09T01:23:43;1.80;;;1.10;;
48205;SDS011;33995;48.202;16.260;2022-09-09T01:27:08;1.30;;;1.20;;
48205;SDS011;33995;48.202;16.260;2022-09-09T01:29:38;2.57;;;1.40;;
48205;SDS011;33995;48.202;16.260;2022-09-09T01:38:04;2.17;;;1.30;;
48205;SDS011;33995;48.202;16.260;2022-09-09T01:40:34;1.90;;;1.20;;
48205;SDS011;33995;48.202;16.260;2022-09-09T01:43:03;2.23;;;1.33;;
48205;SDS011;33995;48.202;16.260;2022-09-09T01:45:35;1.97;;;1.30;;
48205;SDS011;33995;48.202;16.260;2022-09-09T01:48:18;1.97;;;1.00;;
48205;SDS011;33995;48.202;16.260;2022-09-09T01:51:01;1.27;;;1.10;;
48205;SDS011;33995;48.202;16.260;2022-09-09T01:53:31;1.53;;;1.00;;
48205;SDS011;33995;48.202;16.260;2022-09-09T01:56:11;0.97;;;0.90;;
48205;SDS011;33995;48.202;16.260;2022-09-09T01:59:01;1.73;;;1.00;;
48205;SDS011;33995;48.202;16.260;2022-09-09T02:01:50;1.57;;;0.90;;
48205;SDS011;33995;48.202;16.260;2022-09-09T02:05:17;2.23;;;1.37;;
48205;SDS011;33995;48.202;16.260;2022-09-09T02:08:28;2.27;;;1.00;;
48205;SDS011;33995;48.202;16.260;2022-09-09T02:14:10;2.80;;;1.10;;
48205;SDS011;33995;48.202;16.260;2022-09-09T02:16:50;1.67;;;0.90;;
48205;SDS011;33995;48.202;16.260;2022-09-09T02:19:44;1.47;;;1.13;;
48205;SDS011;33995;48.202;16.260;2022-09-09T02:22:26;1.53;;;0.90;;
48205;SDS011;33995;48.202;16.260;2022-09-09T02:25:10;2.30;;;1.10;;
48205;SDS011;33995;48.202;16.260;2022-09-09T02:27:46;1.90;;;1.10;;
48205;SDS011;33995;48.202;16.260;2022-09-09T02:30:22;1.13;;;0.90;;
48205;SDS011;33995;48.202;16.260;2022-09-09T02:33:09;1.67;;;1.07;;
48205;SDS011;33995;48.202;16.260;2022-09-09T02:35:45;1.20;;;1.10;;
48205;SDS011;33995;48.202;16.260;2022-09-09T02:38:20;1.27;;;1.00;;
48205;SDS011;33995;48.202;16.260;2022-09-09T02:41:02;0.93;;;0.87;;
48205;SDS011;33995;48.202;16.260;2022-09-09T02:43:32;3.23;;;1.07;;
48205;SDS011;33995;48.202;16.260;2022-09-09T02:52:15;2.10;;;0.80;;
48205;SDS011;33995;48.202;16.260;2022-09-09T02:54:47;2.40;;;0.97;;
48205;SDS011;33995;48.202;16.260;2022-09-09T02:57:27;1.10;;;1.00;;
48205;SDS011;33995;48.202;16.260;2022-09-09T02:59:59;1.23;;;1.13;;
48205;SDS011;33995;48.202;16.260;2022-09-09T03:02:32;1.60;;;1.10;;
48205;SDS011;33995;48.202;16.260;2022-09-09T03:05:05;1.77;;;1.10;;
48205;SDS011;33995;48.202;16.260;2022-09-09T03:07:48;1.77;;;1.17;;
48205;SDS011;33995;48.202;16.260;2022-09-09T03:10:21;1.23;;;1.13;;
48205;SDS011;33995;48.202;16.260;2022-09-09T03:12:50;2.33;;;0.93;;
48205;SDS011;33995;48.202;16.260;2022-09-09T03:15:22;2.00;;;0.90;;
48205;SDS011;33995;48.202;16.260;2022-09-09T03:18:08;1.70;;;0.93;;
48205;SDS011;33995;48.202;16.260;2022-09-09T03:20:55;1.10;;;1.00;;
48205;SDS011;33995;48.202;16.260;2022-09-09T03:23:37;0.87;;;0.87;;
48205;SDS011;33995;48.202;16.260;2022-09-09T03:26:05;1.43;;;1.00;;
48205;SDS011;33995;48.202;16.260;2022-09-09T03:28:42;1.00;;;0.87;;
48205;SDS011;33995;48.202;16.260;2022-09-09T03:31:25;1.00;;;0.90;;
48205;SDS011;33995;48.202;16.260;2022-09-09T03:34:02;1.10;;;1.00;;
48205;SDS011;33995;48.202;16.260;2022-09-09T03:36:35;1.40;;;1.30;;
48205;SDS011;33995;48.202;16.260;2022-09-09T03:39:07;1.67;;;1.00;;
48205;SDS011;33995;48.202;16.260;2022-09-09T03:41:38;1.97;;;1.10;;
48205;SDS011;33995;48.202;16.260;2022-09-09T03:44:18;2.10;;;1.10;;
48205;SDS011;33995;48.202;16.260;2022-09-09T03:46:47;1.80;;;1.00;;
48205;SDS011;33995;48.202;16.260;2022-09-09T03:49:31;1.50;;;1.03;;
48205;SDS011;33995;48.202;16.260;2022-09-09T03:52:01;3.20;;;1.30;;
48205;SDS011;33995;48.202;16.260;2022-09-09T03:54:30;2.17;;;1.23;;
48205;SDS011;33995;48.202;16.260;2022-09-09T03:56:59;1.87;;;1.23;;
48205;SDS011;33995;48.202;16.260;2022-09-09T03:59:29;1.93;;;1.30;;
48205;SDS011;33995;48.202;16.260;2022-09-09T04:01:58;1.63;;;1.13;;
48205;SDS011;33995;48.202;16.260;2022-09-09T04:04:31;1.30;;;1.20;;
48205;SDS011;33995;48.202;16.260;2022-09-09T04:06:59;2.37;;;1.30;;
48205;SDS011;33995;48.202;16.260;2022-09-09T04:09:34;2.33;;;1.20;;
48205;SDS011;33995;48.202;16.260;2022-09-09T04:12:04;1.17;;;1.07;;
48205;SDS011;33995;48.202;16.260;2022-09-09T04:14:35;1.33;;;1.23;;
48205;SDS011;33995;48.202;16.260;2022-09-09T04:17:05;3.63;;;1.27;;
48205;SDS011;33995;48.202;16.260;2022-09-09T04:19:34;1.20;;;1.10;;
48205;SDS011;33995;48.202;16.260;2022-09-09T04:22:04;1.57;;;1.47;;
48205;SDS011;33995;48.202;16.260;2022-09-09T04:24:35;2.17;;;1.27;;
48205;SDS011;33995;48.202;16.260;2022-09-09T04:27:04;1.57;;;1.20;;
48205;SDS011;33995;48.202;16.260;2022-09-09T04:29:35;1.20;;;1.10;;
48205;SDS011;33995;48.202;16.260;2022-09-09T04:32:03;1.30;;;1.20;;
48205;SDS011;33995;48.202;16.260;2022-09-09T04:34:34;1.37;;;1.13;;
48205;SDS011;33995;48.202;16.260;2022-09-09T04:37:18;2.07;;;1.30;;
48205;SDS011;33995;48.202;16.260;2022-09-09T04:39:47;1.83;;;1.30;;
48205;SDS011;33995;48.202;16.260;2022-09-09T04:42:27;1.77;;;1.30;;
48205;SDS011;33995;48.202;16.260;2022-09-09T04:45:02;2.00;;;1.50;;
48205;SDS011;33995;48.202;16.260;2022-09-09T04:47:43;2.90;;;1.70;;
48205;SDS011;33995;48.202;16.260;2022-09-09T04:50:13;1.50;;;1.40;;
48205;SDS011;33995;48.202;16.260;2022-09-09T04:52:46;1.70;;;1.40;;
48205;SDS011;33995;48.202;16.260;2022-09-09T04:55:17;2.60;;;1.20;;
48205;SDS011;33995;48.202;16.260;2022-09-09T04:57:50;3.67;;;1.40;;
48205;SDS011;33995;48.202;16.260;2022-09-09T05:00:27;1.93;;;1.40;;
48205;SDS011;33995;48.202;16.260;2022-09-09T05:02:55;1.57;;;1.47;;
48205;SDS011;33995;48.202;16.260;2022-09-09T05:05:27;2.30;;;1.50;;
48205;SDS011;33995;48.202;16.260;2022-09-09T05:08:10;1.47;;;1.37;;
48205;SDS011;33995;48.202;16.260;2022-09-09T05:10:39;1.97;;;1.40;;
48205;SDS011;33995;48.202;16.260;2022-09-09T05:13:11;1.43;;;1.30;;
48205;SDS011;33995;48.202;16.260;2022-09-09T05:15:42;2.37;;;1.60;;
48205;SDS011;33995;48.202;16.260;2022-09-09T05:18:24;1.67;;;1.57;;
48205;SDS011;33995;48.202;16.260;2022-09-09T05:20:59;2.33;;;1.70;;
48205;SDS011;33995;48.202;16.260;2022-09-09T05:23:30;1.60;;;1.50;;
48205;SDS011;33995;48.202;16.260;2022-09-09T05:26:04;1.70;;;1.60;;
48205;SDS011;33995;48.202;16.260;2022-09-09T05:28:37;2.13;;;1.70;;
48205;SDS011;33995;48.202;16.260;2022-09-09T05:31:08;2.27;;;1.60;;
48205;SDS011;33995;48.202;16.260;2022-09-09T05:33:43;2.00;;;1.80;;
48205;SDS011;33995;48.202;16.260;2022-09-09T05:36:17;4.87;;;1.80;;
48205;SDS011;33995;48.202;16.260;2022-09-09T05:38:53;2.83;;;1.90;;
48205;SDS011;33995;48.202;16.260;2022-09-09T05:41:25;2.83;;;1.97;;
48205;SDS011;33995;48.202;16.260;2022-09-09T05:43:56;2.60;;;1.87;;
48205;SDS011;33995;48.202;16.260;2022-09-09T05:46:29;2.13;;;1.87;;
48205;SDS011;33995;48.202;16.260;2022-09-09T05:48:58;2.00;;;1.80;;
48205;SDS011;33995;48.202;16.260;2022-09-09T05:51:31;1.80;;;1.70;;
48205;SDS011;33995;48.202;16.260;2022-09-09T05:54:07;2.80;;;1.70;;
48205;SDS011;33995;48.202;16.260;2022-09-09T05:56:40;1.80;;;1.70;;
48205;SDS011;33995;48.202;16.260;2022-09-09T05:59:11;2.40;;;1.70;;
48205;SDS011;33995;48.202;16.260;2022-09-09T06:01:59;3.10;;;1.90;;
48205;SDS011;33995;48.202;16.260;2022-09-09T06:04:35;2.57;;;1.77;;
48205;SDS011;33995;48.202;16.260;2022-09-09T06:07:04;4.53;;;2.10;;
48205;SDS011;33995;48.202;16.260;2022-09-09T06:09:36;3.37;;;2.00;;
48205;SDS011;33995;48.202;16.260;2022-09-09T06:12:05;2.47;;;1.70;;
48205;SDS011;33995;48.202;16.260;2022-09-09T06:14:35;2.70;;;1.77;;
48205;SDS011;33995;48.202;16.260;2022-09-09T06:17:13;2.13;;;1.77;;
48205;SDS011;33995;48.202;16.260;2022-09-09T06:19:45;1.50;;;1.40;;
48205;SDS011;33995;48.202;16.260;2022-09-09T06:22:32;1.93;;;1.63;;
48205;SDS011;33995;48.202;16.260;2022-09-09T06:25:02;1.93;;;1.53;;
48205;SDS011;33995;48.202;16.260;2022-09-09T06:27:48;1.97;;;1.60;;
48205;SDS011;33995;48.202;16.260;2022-09-09T06:30:18;1.83;;;1.60;;
48205;SDS011;33995;48.202;16.260;2022-09-09T06:32:54;1.63;;;1.50;;
48205;SDS011;33995;48.202;16.260;2022-09-09T06:35:26;1.60;;;1.50;;
48205;SDS011;33995;48.202;16.260;2022-09-09T06:38:15;1.80;;;1.70;;
48205;SDS011;33995;48.202;16.260;2022-09-09T06:40:50;3.70;;;1.60;;
48205;SDS011;33995;48.202;16.260;2022-09-09T06:43:23;2.57;;;1.70;;
48205;SDS011;33995;48.202;16.260;2022-09-09T06:45:55;1.87;;;1.40;;
48205;SDS011;33995;48.202;16.260;2022-09-09T06:48:30;1.80;;;1.70;;
48205;SDS011;33995;48.202;16.260;2022-09-09T06:51:03;2.03;;;1.77;;
48205;SDS011;33995;48.202;16.260;2022-09-09T06:53:39;1.87;;;1.50;;
48205;SDS011;33995;48.202;16.260;2022-09-09T06:58:45;2.67;;;1.80;;
48205;SDS011;33995;48.202;16.260;2022-09-09T07:01:23;2.33;;;1.93;;
48205;SDS011;33995;48.202;16.260;2022-09-09T07:03:58;2.37;;;1.80;;
48205;SDS011;33995;48.202;16.260;2022-09-09T07:06:31;2.37;;;1.60;;
48205;SDS011;33995;48.202;16.260;2022-09-09T07:09:15;2.43;;;1.60;;
48205;SDS011;33995;48.202;16.260;2022-09-09T07:11:49;2.97;;;1.70;;
48205;SDS011;33995;48.202;16.260;2022-09-09T07:14:30;2.20;;;1.50;;
48205;SDS011;33995;48.202;16.260;2022-09-09T07:17:13;1.97;;;1.50;;
48205;SDS011;33995;48.202;16.260;2022-09-09T07:19:48;3.20;;;1.70;;
48205;SDS011;33995;48.202;16.260;2022-09-09T07:22:18;2.77;;;1.70;;
48205;SDS011;33995;48.202;16.260;2022-09-09T07:24:50;2.40;;;1.60;;
48205;SDS011;33995;48.202;16.260;2022-09-09T07:27:24;3.47;;;1.50;;
48205;SDS011;33995;48.202;16.260;2022-09-09T07:29:55;2.40;;;1.70;;
48205;SDS011;33995;48.202;16.260;2022-09-09T07:32:38;3.23;;;1.80;;
48205;SDS011;33995;48.202;16.260;2022-09-09T07:35:11;2.00;;;1.60;;
48205;SDS011;33995;48.202;16.260;2022-09-09T07:37:40;3.17;;;1.60;;
48205;SDS011;33995;48.202;16.260;2022-09-09T07:40:22;2.37;;;1.40;;
48205;SDS011;33995;48.202;16.260;2022-09-09T07:42:50;2.93;;;1.90;;
48205;SDS011;33995;48.202;16.260;2022-09-09T07:45:23;2.37;;;1.67;;
48205;SDS011;33995;48.202;16.260;2022-09-09T07:48:06;1.83;;;1.20;;
48205;SDS011;33995;48.202;16.260;2022-09-09T07:50:36;1.80;;;1.40;;
48205;SDS011;33995;48.202;16.260;2022-09-09T07:53:06;2.43;;;1.77;;
48205;SDS011;33995;48.202;16.260;2022-09-09T07:55:38;1.87;;;1.40;;
48205;SDS011;33995;48.202;16.260;2022-09-09T07:58:09;1.67;;;1.30;;
48205;SDS011;33995;48.202;16.260;2022-09-09T08:00:43;1.83;;;1.40;;
48205;SDS011;33995;48.202;16.260;2022-09-09T08:03:15;2.07;;;1.40;;
48205;SDS011;33995;48.202;16.260;2022-09-09T08:05:44;2.67;;;1.40;;
48205;SDS011;33995;48.202;16.260;2022-09-09T08:08:17;1.43;;;1.30;;
48205;SDS011;33995;48.202;16.260;2022-09-09T08:10:48;1.60;;;1.50;;
48205;SDS011;33995;48.202;16.260;2022-09-09T08:13:19;1.43;;;1.33;;
48205;SDS011;33995;48.202;16.260;2022-09-09T08:15:48;1.40;;;1.23;;
48205;SDS011;33995;48.202;16.260;2022-09-09T08:18:27;1.80;;;1.30;;
48205;SDS011;33995;48.202;16.260;2022-09-09T08:20:57;2.07;;;1.37;;
48205;SDS011;33995;48.202;16.260;2022-09-09T08:23:30;3.17;;;1.60;;
48205;SDS011;33995;48.202;16.260;2022-09-09T08:26:11;2.97;;;1.50;;
48205;SDS011;33995;48.202;16.260;2022-09-09T08:28:50;2.27;;;1.43;;
48205;SDS011;33995;48.202;16.260;2022-09-09T08:31:29;2.77;;;1.50;;
48205;SDS011;33995;48.202;16.260;2022-09-09T08:34:07;2.83;;;1.60;;
48205;SDS011;33995;48.202;16.260;2022-09-09T08:36:49;2.00;;;1.67;;
48205;SDS011;33995;48.202;16.260;2022-09-09T08:39:26;2.77;;;2.00;;
48205;SDS011;33995;48.202;16.260;2022-09-09T08:45:12;2.00;;;1.80;;
48205;SDS011;33995;48.202;16.260;2022-09-09T08:48:19;2.50;;;1.80;;
48205;SDS011;33995;48.202;16.260;2022-09-09T08:51:15;1.80;;;1.70;;
48205;SDS011;33995;48.202;16.260;2022-09-09T08:53:48;2.90;;;1.97;;
48205;SDS011;33995;48.202;16.260;2022-09-09T08:56:24;2.53;;;1.70;;
48205;SDS011;33995;48.202;16.260;2022-09-09T08:58:59;2.50;;;1.73;;
48205;SDS011;33995;48.202;16.260;2022-09-09T09:02:04;2.13;;;1.70;;
48205;SDS011;33995;48.202;16.260;2022-09-09T09:08:24;1.80;;;1.47;;
48205;SDS011;33995;48.202;16.260;2022-09-09T09:11:22;1.70;;;1.20;;
48205;SDS011;33995;48.202;16.260;2022-09-09T09:13:58;2.77;;;1.40;;
48205;SDS011;33995;48.202;16.260;2022-09-09T09:19:38;1.83;;;1.30;;
48205;SDS011;33995;48.202;16.260;2022-09-09T09:22:26;2.43;;;1.50;;
48205;SDS011;33995;48.202;16.260;2022-09-09T09:25:18;3.53;;;1.53;;
48205;SDS011;33995;48.202;16.260;2022-09-09T09:33:45;2.27;;;1.50;;
48205;SDS011;33995;48.202;16.260;2022-09-09T09:36:42;2.17;;;1.60;;
48205;SDS011;33995;48.202;16.260;2022-09-09T09:39:26;1.87;;;1.50;;
48205;SDS011;33995;48.202;16.260;2022-09-09T09:42:28;2.20;;;1.50;;
48205;SDS011;33995;48.202;16.260;2022-09-09T09:45:16;4.23;;;1.60;;
48205;SDS011;33995;48.202;16.260;2022-09-09T09:48:08;2.47;;;1.60;;
48205;SDS011;33995;48.202;16.260;2022-09-09T09:50:48;2.30;;;1.70;;
48205;SDS011;33995;48.202;16.260;2022-09-09T09:53:27;2.33;;;1.67;;
48205;SDS011;33995;48.202;16.260;2022-09-09T09:56:10;3.27;;;1.90;;
48205;SDS011;33995;48.202;16.260;2022-09-09T09:58:53;2.07;;;1.50;;
48205;SDS011;33995;48.202;16.260;2022-09-09T10:01:34;4.83;;;1.60;;
48205;SDS011;33995;48.202;16.260;2022-09-09T10:04:16;1.90;;;1.40;;
48205;SDS011;33995;48.202;16.260;2022-09-09T10:06:51;3.00;;;1.50;;
48205;SDS011;33995;48.202;16.260;2022-09-09T10:09:34;3.07;;;1.60;;
48205;SDS011;33995;48.202;16.260;2022-09-09T10:36:32;2.87;;;1.60;;
48205;SDS011;33995;48.202;16.260;2022-09-09T10:42:13;1.57;;;1.20;;
48205;SDS011;33995;48.202;16.260;2022-09-09T10:50:50;2.43;;;1.40;;
48205;SDS011;33995;48.202;16.260;2022-09-09T10:54:00;4.63;;;1.40;;
48205;SDS011;33995;48.202;16.260;2022-09-09T10:56:53;2.07;;;1.70;;
48205;SDS011;33995;48.202;16.260;2022-09-09T10:59:29;1.90;;;1.50;;
48205;SDS011;33995;48.202;16.260;2022-09-09T11:07:58;1.70;;;1.60;;
48205;SDS011;33995;48.202;16.260;2022-09-09T11:10:40;2.33;;;1.70;;
48205;SDS011;33995;48.202;16.260;2022-09-09T11:13:39;1.97;;;1.40;;
48205;SDS011;33995;48.202;16.260;2022-09-09T11:19:34;2.47;;;1.50;;
48205;SDS011;33995;48.202;16.260;2022-09-09T11:25:08;3.60;;;1.33;;
48205;SDS011;33995;48.202;16.260;2022-09-09T11:43:02;2.03;;;1.57;;
48205;SDS011;33995;48.202;16.260;2022-09-09T11:45:34;2.30;;;1.50;;
48205;SDS011;33995;48.202;16.260;2022-09-09T11:48:03;2.60;;;1.70;;
48205;SDS011;33995;48.202;16.260;2022-09-09T11:50:37;2.70;;;1.70;;
48205;SDS011;33995;48.202;16.260;2022-09-09T11:53:22;1.87;;;1.53;;
48205;SDS011;33995;48.202;16.260;2022-09-09T11:56:05;2.23;;;1.60;;
48205;SDS011;33995;48.202;16.260;2022-09-09T11:58:53;2.13;;;1.40;;
48205;SDS011;33995;48.202;16.260;2022-09-09T12:02:18;7.13;;;1.40;;
48205;SDS011;33995;48.202;16.260;2022-09-09T12:05:11;2.50;;;1.50;;
48205;SDS011;33995;48.202;16.260;2022-09-09T12:10:58;2.40;;;1.70;;
48205;SDS011;33995;48.202;16.260;2022-09-09T12:13:31;3.00;;;1.60;;
48205;SDS011;33995;48.202;16.260;2022-09-09T12:16:00;3.60;;;1.70;;
48205;SDS011;33995;48.202;16.260;2022-09-09T12:18:36;2.33;;;1.50;;
48205;SDS011;33995;48.202;16.260;2022-09-09T12:24:37;1.57;;;1.47;;
48205;SDS011;33995;48.202;16.260;2022-09-09T12:32:29;3.37;;;2.20;;
48205;SDS011;33995;48.202;16.260;2022-09-09T12:35:19;2.33;;;2.00;;
48205;SDS011;33995;48.202;16.260;2022-09-09T12:38:11;3.17;;;1.60;;
48205;SDS011;33995;48.202;16.260;2022-09-09T12:40:55;1.93;;;1.60;;
48205;SDS011;33995;48.202;16.260;2022-09-09T12:43:26;2.40;;;1.63;;
48205;SDS011;33995;48.202;16.260;2022-09-09T12:45:59;2.57;;;1.70;;
48205;SDS011;33995;48.202;16.260;2022-09-09T12:48:39;1.67;;;1.50;;
48205;SDS011;33995;48.202;16.260;2022-09-09T12:51:30;1.80;;;1.50;;
48205;SDS011;33995;48.202;16.260;2022-09-09T12:54:01;1.73;;;1.63;;
48205;SDS011;33995;48.202;16.260;2022-09-09T12:56:32;3.30;;;2.13;;
48205;SDS011;33995;48.202;16.260;2022-09-09T12:59:03;2.53;;;1.60;;
48205;SDS011;33995;48.202;16.260;2022-09-09T13:01:34;1.67;;;1.30;;
48205;SDS011;33995;48.202;16.260;2022-09-09T13:04:21;1.80;;;1.40;;
48205;SDS011;33995;48.202;16.260;2022-09-09T13:06:51;2.37;;;1.30;;
48205;SDS011;33995;48.202;16.260;2022-09-09T13:09:21;5.43;;;1.37;;
48205;SDS011;33995;48.202;16.260;2022-09-09T13:11:59;1.33;;;1.23;;
48205;SDS011;33995;48.202;16.260;2022-09-09T13:14:30;1.70;;;1.40;;
48205;SDS011;33995;48.202;16.260;2022-09-09T13:17:03;1.60;;;1.47;;
48205;SDS011;33995;48.202;16.260;2022-09-09T13:19:35;2.10;;;1.20;;
48205;SDS011;33995;48.202;16.260;2022-09-09T13:22:20;1.57;;;1.30;;
48205;SDS011;33995;48.202;16.260;2022-09-09T13:24:58;2.03;;;1.30;;
48205;SDS011;33995;48.202;16.260;2022-09-09T13:27:55;1.30;;;1.20;;
48205;SDS011;33995;48.202;16.260;2022-09-09T13:30:36;1.80;;;1.40;;
48205;SDS011;33995;48.202;16.260;2022-09-09T13:38:27;6.27;;;1.33;;
48205;SDS011;33995;48.202;16.260;2022-09-09T13:41:07;2.40;;;1.17;;
48205;SDS011;33995;48.202;16.260;2022-09-09T13:43:45;2.47;;;1.23;;
48205;SDS011;33995;48.202;16.260;2022-09-09T13:52:03;1.43;;;1.33;;
48205;SDS011;33995;48.202;16.260;2022-09-09T13:54:37;2.57;;;1.20;;
48205;SDS011;33995;48.202;16.260;2022-09-09T13:57:22;2.40;;;1.30;;
48205;SDS011;33995;48.202;16.260;2022-09-09T13:59:52;1.30;;;1.20;;
48205;SDS011;33995;48.202;16.260;2022-09-09T14:02:35;1.43;;;1.30;;
48205;SDS011;33995;48.202;16.260;2022-09-09T14:05:06;2.00;;;1.40;;
48205;SDS011;33995;48.202;16.260;2022-09-09T14:07:48;2.17;;;1.23;;
48205;SDS011;33995;48.202;16.260;2022-09-09T14:10:23;1.50;;;1.40;;
48205;SDS011;33995;48.202;16.260;2022-09-09T14:12:51;1.83;;;1.50;;
48205;SDS011;33995;48.202;16.260;2022-09-09T14:15:23;3.50;;;1.43;;
48205;SDS011;33995;48.202;16.260;2022-09-09T14:17:52;4.20;;;1.50;;
48205;SDS011;33995;48.202;16.260;2022-09-09T14:20:24;6.40;;;1.23;;
48205;SDS011;33995;48.202;16.260;2022-09-09T14:23:09;1.83;;;1.23;;
48205;SDS011;33995;48.202;16.260;2022-09-09T14:25:43;3.03;;;1.40;;
48205;SDS011;33995;48.202;16.260;2022-09-09T14:28:11;3.00;;;1.30;;
48205;SDS011;33995;48.202;16.260;2022-09-09T14:31:13;2.87;;;1.60;;
48205;SDS011;33995;48.202;16.260;2022-09-09T14:33:49;1.67;;;1.37;;
48205;SDS011;33995;48.202;16.260;2022-09-09T14:36:23;2.63;;;1.50;;
48205;SDS011;33995;48.202;16.260;2022-09-09T14:38:56;2.03;;;1.33;;
48205;SDS011;33995;48.202;16.260;2022-09-09T14:41:39;1.87;;;1.63;;
48205;SDS011;33995;48.202;16.260;2022-09-09T14:44:09;1.73;;;1.53;;
48205;SDS011;33995;48.202;16.260;2022-09-09T14:46:38;2.00;;;1.80;;
48205;SDS011;33995;48.202;16.260;2022-09-09T14:49:12;1.80;;;1.50;;
48205;SDS011;33995;48.202;16.260;2022-09-09T14:51:43;2.57;;;1.53;;
48205;SDS011;33995;48.202;16.260;2022-09-09T14:54:19;2.97;;;1.67;;
48205;SDS011;33995;48.202;16.260;2022-09-09T14:56:51;3.00;;;1.50;;
48205;SDS011;33995;48.202;16.260;2022-09-09T14:59:24;1.60;;;1.50;;
48205;SDS011;33995;48.202;16.260;2022-09-09T15:01:58;1.63;;;1.43;;
48205;SDS011;33995;48.202;16.260;2022-09-09T15:04:34;2.83;;;1.40;;
48205;SDS011;33995;48.202;16.260;2022-09-09T15:07:02;2.73;;;1.50;;
48205;SDS011;33995;48.202;16.260;2022-09-09T15:09:45;2.20;;;1.60;;
48205;SDS011;33995;48.202;16.260;2022-09-09T15:12:23;2.63;;;1.53;;
48205;SDS011;33995;48.202;16.260;2022-09-09T15:14:53;1.80;;;1.50;;
48205;SDS011;33995;48.202;16.260;2022-09-09T15:17:24;3.27;;;1.47;;
48205;SDS011;33995;48.202;16.260;2022-09-09T15:20:48;1.60;;;1.47;;
48205;SDS011;33995;48.202;16.260;2022-09-09T15:23:17;3.33;;;1.37;;
48205;SDS011;33995;48.202;16.260;2022-09-09T15:25:55;1.90;;;1.40;;
48205;SDS011;33995;48.202;16.260;2022-09-09T15:28:28;1.80;;;1.40;;
48205;SDS011;33995;48.202;16.260;2022-09-09T15:30:58;2.97;;;1.60;;
48205;SDS011;33995;48.202;16.260;2022-09-09T15:33:35;1.47;;;1.30;;
48205;SDS011;33995;48.202;16.260;2022-09-09T15:36:14;1.67;;;1.37;;
48205;SDS011;33995;48.202;16.260;2022-09-09T15:38:52;1.87;;;1.40;;
48205;SDS011;33995;48.202;16.260;2022-09-09T15:41:22;2.97;;;1.57;;
48205;SDS011;33995;48.202;16.260;2022-09-09T15:43:55;1.80;;;1.40;;
48205;SDS011;33995;48.202;16.260;2022-09-09T15:49:27;1.50;;;1.40;;
48205;SDS011;33995;48.202;16.260;2022-09-09T15:52:01;1.70;;;1.50;;
48205;SDS011;33995;48.202;16.260;2022-09-09T15:54:31;3.40;;;1.53;;
48205;SDS011;33995;48.202;16.260;2022-09-09T15:57:02;1.70;;;1.43;;
48205;SDS011;33995;48.202;16.260;2022-09-09T15:59:36;2.23;;;1.30;;
48205;SDS011;33995;48.202;16.260;2022-09-09T16:02:05;3.70;;;1.33;;
48205;SDS011;33995;48.202;16.260;2022-09-09T16:04:37;1.57;;;1.40;;
48205;SDS011;33995;48.202;16.260;2022-09-09T16:07:10;1.90;;;1.37;;
48205;SDS011;33995;48.202;16.260;2022-09-09T16:09:39;1.40;;;1.30;;
48205;SDS011;33995;48.202;16.260;2022-09-09T16:12:08;1.40;;;1.20;;
48205;SDS011;33995;48.202;16.260;2022-09-09T16:14:42;1.57;;;1.33;;
48205;SDS011;33995;48.202;16.260;2022-09-09T16:17:13;2.17;;;1.37;;
48205;SDS011;33995;48.202;16.260;2022-09-09T16:19:44;1.50;;;1.40;;
48205;SDS011;33995;48.202;16.260;2022-09-09T16:22:19;2.27;;;1.40;;
48205;SDS011;33995;48.202;16.260;2022-09-09T16:24:49;2.50;;;1.33;;
48205;SDS011;33995;48.202;16.260;2022-09-09T16:27:20;1.50;;;1.40;;
48205;SDS011;33995;48.202;16.260;2022-09-09T16:29:56;2.97;;;1.60;;
48205;SDS011;33995;48.202;16.260;2022-09-09T16:32:27;1.47;;;1.37;;
48205;SDS011;33995;48.202;16.260;2022-09-09T16:34:57;2.77;;;1.60;;
48205;SDS011;33995;48.202;16.260;2022-09-09T16:37:28;1.73;;;1.27;;
48205;SDS011;33995;48.202;16.260;2022-09-09T16:40:11;2.53;;;1.50;;
48205;SDS011;33995;48.202;16.260;2022-09-09T16:42:40;1.63;;;1.50;;
48205;SDS011;33995;48.202;16.260;2022-09-09T16:45:12;1.80;;;1.70;;
48205;SDS011;33995;48.202;16.260;2022-09-09T16:47:54;1.67;;;1.53;;
48205;SDS011;33995;48.202;16.260;2022-09-09T16:50:30;1.70;;;1.50;;
48205;SDS011;33995;48.202;16.260;2022-09-09T16:53:12;2.13;;;1.50;;
48205;SDS011;33995;48.202;16.260;2022-09-09T16:55:53;1.90;;;1.70;;
48205;SDS011;33995;48.202;16.260;2022-09-09T16:58:23;1.60;;;1.50;;
48205;SDS011;33995;48.202;16.260;2022-09-09T17:00:57;1.90;;;1.70;;
48205;SDS011;33995;48.202;16.260;2022-09-09T17:03:31;1.97;;;1.77;;
48205;SDS011;33995;48.202;16.260;2022-09-09T17:06:11;1.87;;;1.70;;
48205;SDS011;33995;48.202;16.260;2022-09-09T17:08:42;3.10;;;1.83;;
48205;SDS011;33995;48.202;16.260;2022-09-09T17:11:25;2.33;;;1.70;;
48205;SDS011;33995;48.202;16.260;2022-09-09T17:13:57;2.90;;;1.80;;
48205;SDS011;33995;48.202;16.260;2022-09-09T17:16:29;1.97;;;1.67;;
48205;SDS011;33995;48.202;16.260;2022-09-09T17:18:58;2.77;;;1.80;;
48205;SDS011;33995;48.202;16.260;2022-09-09T17:21:29;2.63;;;2.00;;
48205;SDS011;33995;48.202;16.260;2022-09-09T17:23:58;2.07;;;1.87;;
48205;SDS011;33995;48.202;16.260;2022-09-09T17:26:28;2.37;;;2.00;;
48205;SDS011;33995;48.202;16.260;2022-09-09T17:29:06;6.33;;;2.20;;
48205;SDS011;33995;48.202;16.260;2022-09-09T17:31:37;3.30;;;2.07;;
48205;SDS011;33995;48.202;16.260;2022-09-09T17:34:05;2.73;;;2.40;;
48205;SDS011;33995;48.202;16.260;2022-09-09T17:36:39;2.30;;;2.10;;
48205;SDS011;33995;48.202;16.260;2022-09-09T17:39:07;3.20;;;2.20;;
48205;SDS011;33995;48.202;16.260;2022-09-09T17:41:38;2.90;;;2.20;;
48205;SDS011;33995;48.202;16.260;2022-09-09T17:44:10;2.40;;;2.20;;
48205;SDS011;33995;48.202;16.260;2022-09-09T17:46:52;2.80;;;2.20;;
48205;SDS011;33995;48.202;16.260;2022-09-09T17:49:25;2.50;;;2.20;;
48205;SDS011;33995;48.202;16.260;2022-09-09T17:51:57;3.30;;;2.30;;
48205;SDS011;33995;48.202;16.260;2022-09-09T17:54:25;2.50;;;2.20;;
48205;SDS011;33995;48.202;16.260;2022-09-09T17:56:59;3.43;;;2.10;;
48205;SDS011;33995;48.202;16.260;2022-09-09T17:59:29;2.60;;;2.10;;